Time;durP1;ratioP1;P1;durP2;ratioP2;P2;SDS_P1;SDS_P2;PMS_P1;PMS_P2;Temp;Humidity;BMP_temperature;BMP_pressure;BME280_temperature;BME280_humidity;BME280_pressure;Samples;Min_cycle;Max_cycle;Signal;HPM_P1;HPM_P2
2023/10/28 00:01:13;;;;;;;15.53;5.60;;;;;;;;;;2612889;46;20436;-73
2023/10/28 00:03:39;;;;;;;15.70;5.77;;;;;;;;;;2612348;54;20965;-74
2023/10/28 00:06:07;;;;;;;9.70;5.80;;;;;;;;;;2612862;54;20969;-75
2023/10/28 00:08:34;;;;;;;11.07;5.53;;;;;;;;;;2612920;50;20424;-73
2023/10/28 00:11:00;;;;;;;13.53;4.87;;;;;;;;;;2612593;54;20491;-73
2023/10/28 00:13:27;;;;;;;14.80;6.20;;;;;;;;;;2613355;54;20498;-73
2023/10/28 00:15:53;;;;;;;15.80;5.67;;;;;;;;;;2612865;54;20437;-74
2023/10/28 00:18:19;;;;;;;14.40;5.23;;;;;;;;;;2613465;39;20864;-73
2023/10/28 00:20:46;;;;;;;9.30;5.13;;;;;;;;;;2612362;39;20788;-75
2023/10/28 00:23:14;;;;;;;17.30;6.17;;;;;;;;;;2612642;47;20463;-75
2023/10/28 00:25:40;;;;;;;17.17;5.77;;;;;;;;;;2612578;46;20453;-75
2023/10/28 00:28:06;;;;;;;13.37;5.70;;;;;;;;;;2613168;54;20396;-75
2023/10/28 00:30:33;;;;;;;13.80;5.20;;;;;;;;;;2613542;39;21019;-74
2023/10/28 00:33:00;;;;;;;9.53;5.07;;;;;;;;;;2612071;54;20420;-74
2023/10/28 00:35:28;;;;;;;9.53;4.60;;;;;;;;;;2612770;54;20423;-74
2023/10/28 00:37:54;;;;;;;10.30;5.07;;;;;;;;;;2612604;54;20419;-74
2023/10/28 00:40:20;;;;;;;7.53;4.40;;;;;;;;;;2611767;54;20440;-75
2023/10/28 00:42:47;;;;;;;10.53;6.53;;;;;;;;;;2612675;54;20423;-75
2023/10/28 00:45:15;;;;;;;11.60;5.10;;;;;;;;;;2613554;39;20873;-74
2023/10/28 00:47:43;;;;;;;13.37;4.70;;;;;;;;;;2613219;54;20457;-75
2023/10/28 00:50:10;;;;;;;11.50;5.20;;;;;;;;;;2612671;47;21023;-75
2023/10/28 00:52:41;;;;;;;9.80;4.67;;;;;;;;;;2612702;54;20452;-74
2023/10/28 00:55:10;;;;;;;10.83;5.47;;;;;;;;;;2612878;54;20431;-75
2023/10/28 00:57:38;;;;;;;17.43;5.97;;;;;;;;;;2613391;31;20938;-76
2023/10/28 01:00:06;;;;;;;7.47;4.57;;;;;;;;;;2612769;54;20420;-75
2023/10/28 01:02:33;;;;;;;10.73;4.80;;;;;;;;;;2613268;39;20789;-76
2023/10/28 01:04:59;;;;;;;17.60;5.40;;;;;;;;;;2612872;54;20403;-76
2023/10/28 01:07:27;;;;;;;10.10;5.37;;;;;;;;;;2612795;54;21313;-75
2023/10/28 01:09:53;;;;;;;11.70;5.03;;;;;;;;;;2613215;47;20462;-75
2023/10/28 01:12:21;;;;;;;16.00;5.00;;;;;;;;;;2612804;54;21309;-76
2023/10/28 01:14:47;;;;;;;12.17;4.80;;;;;;;;;;2613039;54;20396;-73
2023/10/28 01:17:13;;;;;;;11.53;4.70;;;;;;;;;;2612312;39;20843;-75
2023/10/28 01:19:40;;;;;;;11.73;4.37;;;;;;;;;;2612526;54;20430;-74
2023/10/28 01:22:06;;;;;;;9.23;5.03;;;;;;;;;;2611920;54;20427;-74
2023/10/28 01:24:35;;;;;;;12.30;5.37;;;;;;;;;;2612758;54;20427;-75
2023/10/28 01:27:04;;;;;;;8.93;5.13;;;;;;;;;;2612876;54;20522;-75
2023/10/28 01:29:30;;;;;;;13.03;4.87;;;;;;;;;;2613274;54;21019;-75
2023/10/28 01:31:56;;;;;;;18.77;5.20;;;;;;;;;;2613002;46;20439;-75
2023/10/28 01:34:22;;;;;;;13.10;4.43;;;;;;;;;;2612774;54;20415;-75
2023/10/28 01:36:49;;;;;;;14.17;5.07;;;;;;;;;;2611138;54;20411;-75
2023/10/28 01:39:18;;;;;;;10.63;4.10;;;;;;;;;;2612580;54;20396;-74
2023/10/28 01:41:44;;;;;;;13.10;4.47;;;;;;;;;;2612653;46;20470;-75
2023/10/28 01:44:11;;;;;;;9.43;4.00;;;;;;;;;;2612705;39;20782;-75
2023/10/28 01:46:38;;;;;;;7.20;3.87;;;;;;;;;;2611386;47;20559;-75
2023/10/28 01:49:04;;;;;;;9.17;3.60;;;;;;;;;;2611844;47;20423;-75
2023/10/28 01:51:30;;;;;;;11.83;4.50;;;;;;;;;;2612193;54;20389;-74
2023/10/28 01:53:56;;;;;;;5.70;3.57;;;;;;;;;;2612734;54;20436;-74
2023/10/28 01:56:22;;;;;;;7.70;4.63;;;;;;;;;;2613230;54;20438;-74
2023/10/28 01:58:48;;;;;;;11.37;4.43;;;;;;;;;;2612015;54;20423;-74
2023/10/28 02:01:15;;;;;;;17.00;4.00;;;;;;;;;;2611723;54;20399;-75
2023/10/28 02:03:41;;;;;;;7.60;3.50;;;;;;;;;;2612863;54;20419;-73
2023/10/28 02:06:07;;;;;;;8.00;4.43;;;;;;;;;;2612393;54;20466;-74
2023/10/28 02:08:34;;;;;;;4.80;3.20;;;;;;;;;;2612872;54;20438;-74
2023/10/28 02:11:00;;;;;;;9.60;4.40;;;;;;;;;;2612966;54;20386;-72
2023/10/28 02:13:26;;;;;;;8.90;3.27;;;;;;;;;;2612778;54;21069;-74
2023/10/28 02:15:52;;;;;;;10.67;4.70;;;;;;;;;;2612617;54;20423;-73
2023/10/28 02:18:18;;;;;;;9.13;3.60;;;;;;;;;;2612804;31;20988;-74
2023/10/28 02:20:44;;;;;;;8.93;4.10;;;;;;;;;;2612512;54;20978;-75
2023/10/28 02:23:13;;;;;;;7.70;3.03;;;;;;;;;;2613923;54;20407;-75
2023/10/28 02:25:42;;;;;;;12.93;3.90;;;;;;;;;;2613387;54;20419;-73
2023/10/28 02:28:10;;;;;;;4.73;2.60;;;;;;;;;;2613454;54;20404;-72
2023/10/28 02:30:40;;;;;;;9.33;2.90;;;;;;;;;;2613164;54;20411;-74
2023/10/28 02:33:07;;;;;;;8.53;3.63;;;;;;;;;;2612953;47;20453;-72
2023/10/28 02:35:35;;;;;;;4.03;2.57;;;;;;;;;;2613131;47;21060;-73
2023/10/28 02:38:01;;;;;;;7.43;2.93;;;;;;;;;;2612888;54;20437;-73
2023/10/28 02:40:27;;;;;;;5.83;2.60;;;;;;;;;;2612147;54;20419;-73
2023/10/28 02:42:54;;;;;;;7.13;3.17;;;;;;;;;;2613588;54;20426;-72
2023/10/28 02:45:20;;;;;;;11.63;2.97;;;;;;;;;;2613322;54;20416;-73
2023/10/28 02:47:46;;;;;;;9.97;3.23;;;;;;;;;;2613939;54;20438;-73
2023/10/28 02:50:12;;;;;;;5.47;2.90;;;;;;;;;;2613290;54;20398;-74
2023/10/28 02:52:38;;;;;;;7.63;2.60;;;;;;;;;;2612778;54;20428;-72
2023/10/28 02:55:05;;;;;;;5.77;2.60;;;;;;;;;;2613157;54;20523;-74
2023/10/28 02:57:32;;;;;;;8.87;2.47;;;;;;;;;;2612886;54;20404;-73
2023/10/28 02:59:58;;;;;;;9.73;3.00;;;;;;;;;;2612931;54;20457;-76
2023/10/28 03:02:25;;;;;;;8.93;3.33;;;;;;;;;;2613192;54;20511;-73
2023/10/28 03:04:51;;;;;;;6.40;3.00;;;;;;;;;;2613317;54;20400;-75
2023/10/28 03:07:17;;;;;;;8.53;2.80;;;;;;;;;;2613289;39;20844;-73
2023/10/28 03:09:43;;;;;;;9.37;3.57;;;;;;;;;;2613564;54;20399;-74
2023/10/28 03:12:12;;;;;;;6.63;3.37;;;;;;;;;;2612897;47;20420;-73
2023/10/28 03:14:38;;;;;;;8.83;3.60;;;;;;;;;;2612891;54;20511;-76
2023/10/28 03:17:04;;;;;;;11.37;4.27;;;;;;;;;;2613574;54;21043;-75
2023/10/28 03:19:30;;;;;;;8.60;3.20;;;;;;;;;;2612507;54;21594;-73
2023/10/28 03:21:56;;;;;;;5.50;3.30;;;;;;;;;;2614220;54;20473;-74
2023/10/28 03:24:23;;;;;;;7.50;4.17;;;;;;;;;;2613131;54;20431;-73
2023/10/28 03:26:49;;;;;;;4.77;3.00;;;;;;;;;;2613677;39;20877;-72
2023/10/28 03:29:15;;;;;;;8.20;3.57;;;;;;;;;;2613415;54;20982;-74
2023/10/28 03:31:41;;;;;;;9.93;3.73;;;;;;;;;;2613054;39;20863;-74
2023/10/28 03:34:07;;;;;;;7.60;3.47;;;;;;;;;;2612121;47;20423;-74
2023/10/28 03:36:33;;;;;;;10.03;3.80;;;;;;;;;;2611885;54;20428;-74
2023/10/28 03:38:59;;;;;;;8.17;4.87;;;;;;;;;;2612136;54;20423;-75
2023/10/28 03:41:25;;;;;;;5.90;3.07;;;;;;;;;;2613688;54;20463;-75
2023/10/28 03:43:52;;;;;;;6.90;4.50;;;;;;;;;;2612380;54;20498;-75
2023/10/28 03:46:21;;;;;;;10.77;4.13;;;;;;;;;;2612727;54;20420;-72
2023/10/28 03:48:47;;;;;;;8.60;4.10;;;;;;;;;;2613183;54;20399;-73
2023/10/28 03:51:13;;;;;;;8.37;4.07;;;;;;;;;;2612372;47;20414;-73
2023/10/28 03:53:39;;;;;;;8.83;3.47;;;;;;;;;;2612742;54;20476;-74
2023/10/28 03:56:05;;;;;;;6.80;3.73;;;;;;;;;;2613610;39;20918;-74
2023/10/28 03:58:32;;;;;;;8.10;4.03;;;;;;;;;;2612332;54;20399;-75
2023/10/28 04:00:59;;;;;;;6.67;3.90;;;;;;;;;;2612987;54;20431;-76
2023/10/28 04:03:25;;;;;;;10.83;4.13;;;;;;;;;;2612882;54;20423;-74
2023/10/28 04:05:55;;;;;;;6.23;4.40;;;;;;;;;;2612831;54;20409;-75
2023/10/28 04:08:21;;;;;;;6.93;4.73;;;;;;;;;;2612525;54;20419;-74
2023/10/28 04:10:47;;;;;;;8.43;3.73;;;;;;;;;;2612410;54;20423;-76
2023/10/28 04:13:14;;;;;;;9.30;4.57;;;;;;;;;;2612776;54;20427;-76
2023/10/28 04:15:40;;;;;;;6.67;4.37;;;;;;;;;;2612562;47;20990;-76
2023/10/28 04:18:06;;;;;;;11.37;4.90;;;;;;;;;;2612699;47;20408;-75
2023/10/28 04:20:33;;;;;;;7.30;4.97;;;;;;;;;;2613168;54;20415;-75
2023/10/28 04:23:00;;;;;;;8.90;4.57;;;;;;;;;;2612628;54;20530;-76
2023/10/28 04:25:27;;;;;;;8.50;5.17;;;;;;;;;;2613354;54;20454;-74
2023/10/28 04:27:53;;;;;;;6.37;4.30;;;;;;;;;;2612606;51;20391;-75
2023/10/28 04:30:19;;;;;;;5.87;4.40;;;;;;;;;;2612935;54;20435;-76
2023/10/28 04:32:45;;;;;;;7.00;4.37;;;;;;;;;;2612527;54;20407;-76
2023/10/28 04:35:11;;;;;;;9.07;4.97;;;;;;;;;;2613220;54;20423;-76
2023/10/28 04:37:37;;;;;;;8.30;4.03;;;;;;;;;;2612472;54;21170;-76
2023/10/28 04:40:05;;;;;;;5.53;3.47;;;;;;;;;;2611565;47;20574;-76
2023/10/28 04:42:31;;;;;;;6.60;4.47;;;;;;;;;;2612790;54;20425;-75
2023/10/28 04:44:57;;;;;;;8.83;4.40;;;;;;;;;;2613971;54;20467;-75
2023/10/28 04:47:24;;;;;;;6.93;4.43;;;;;;;;;;2613298;54;20442;-76
2023/10/28 04:49:50;;;;;;;7.23;4.60;;;;;;;;;;2612697;54;21000;-76
2023/10/28 04:52:16;;;;;;;8.13;4.03;;;;;;;;;;2612325;39;20849;-76
2023/10/28 04:54:42;;;;;;;6.63;4.33;;;;;;;;;;2612762;54;20559;-76
2023/10/28 04:57:09;;;;;;;7.00;4.30;;;;;;;;;;2612865;54;20415;-75
2023/10/28 04:59:35;;;;;;;9.93;5.63;;;;;;;;;;2613365;54;20387;-75
2023/10/28 05:02:01;;;;;;;7.87;5.07;;;;;;;;;;2612255;54;20407;-75
2023/10/28 05:04:28;;;;;;;6.17;4.30;;;;;;;;;;2612941;54;20423;-76
2023/10/28 05:06:54;;;;;;;7.77;5.47;;;;;;;;;;2612929;46;20451;-75
2023/10/28 05:09:20;;;;;;;7.07;4.40;;;;;;;;;;2612740;54;20384;-75
2023/10/28 05:11:56;;;;;;;7.60;4.70;;;;;;;;;;2612986;54;20574;-75
2023/10/28 05:14:25;;;;;;;7.10;4.53;;;;;;;;;;2612217;54;20402;-75
2023/10/28 05:16:52;;;;;;;7.03;3.43;;;;;;;;;;2613209;54;20427;-75
2023/10/28 05:19:22;;;;;;;7.57;3.90;;;;;;;;;;2613026;54;20406;-74
2023/10/28 05:21:48;;;;;;;6.53;3.70;;;;;;;;;;2612439;54;20522;-73
2023/10/28 05:24:14;;;;;;;6.17;3.40;;;;;;;;;;2611971;47;20479;-73
2023/10/28 05:26:42;;;;;;;4.93;3.70;;;;;;;;;;2613108;54;20487;-72
2023/10/28 05:29:09;;;;;;;10.87;4.47;;;;;;;;;;2612411;54;20407;-73
2023/10/28 05:31:35;;;;;;;6.40;4.00;;;;;;;;;;2611627;54;21003;-75
2023/10/28 05:34:02;;;;;;;14.60;3.67;;;;;;;;;;2612413;54;20431;-75
2023/10/28 05:36:28;;;;;;;7.00;3.10;;;;;;;;;;2612229;54;20420;-75
2023/10/28 05:38:54;;;;;;;6.00;2.90;;;;;;;;;;2612591;54;20407;-75
2023/10/28 05:41:21;;;;;;;4.67;2.70;;;;;;;;;;2612289;54;20483;-76
2023/10/28 05:43:48;;;;;;;9.00;3.07;;;;;;;;;;2612289;54;21384;-76
2023/10/28 05:46:14;;;;;;;4.17;2.67;;;;;;;;;;2612867;54;20403;-75
2023/10/28 05:48:40;;;;;;;5.73;3.40;;;;;;;;;;2613104;54;20383;-74
2023/10/28 05:51:09;;;;;;;10.10;2.80;;;;;;;;;;2611528;54;20415;-75
2023/10/28 05:53:35;;;;;;;8.70;3.20;;;;;;;;;;2612295;54;20415;-74
2023/10/28 05:56:01;;;;;;;5.30;3.60;;;;;;;;;;2612866;47;20457;-76
2023/10/28 05:58:27;;;;;;;5.20;2.50;;;;;;;;;;2613295;54;20403;-75
2023/10/28 06:00:54;;;;;;;4.33;2.43;;;;;;;;;;2613262;54;20391;-75
2023/10/28 06:03:20;;;;;;;6.83;2.57;;;;;;;;;;2613054;54;20958;-76
2023/10/28 06:05:46;;;;;;;7.67;3.37;;;;;;;;;;2613094;54;20430;-75
2023/10/28 06:08:13;;;;;;;4.97;2.37;;;;;;;;;;2613515;54;20430;-76
2023/10/28 06:10:39;;;;;;;5.90;2.77;;;;;;;;;;2613510;54;20411;-75
2023/10/28 06:13:06;;;;;;;3.70;2.33;;;;;;;;;;2613867;54;20413;-75
2023/10/28 06:15:34;;;;;;;4.57;2.70;;;;;;;;;;2614041;39;20765;-75
2023/10/28 06:18:00;;;;;;;10.80;2.33;;;;;;;;;;2612561;47;20399;-76
2023/10/28 06:20:26;;;;;;;3.83;2.30;;;;;;;;;;2612867;54;20409;-75
2023/10/28 06:22:52;;;;;;;4.43;3.03;;;;;;;;;;2613188;46;20441;-75
2023/10/28 06:25:18;;;;;;;8.77;2.90;;;;;;;;;;2614058;54;20453;-75
2023/10/28 06:27:44;;;;;;;7.20;2.80;;;;;;;;;;2612845;47;20423;-76
2023/10/28 06:30:11;;;;;;;4.73;3.00;;;;;;;;;;2613930;54;20438;-76
2023/10/28 06:32:38;;;;;;;4.83;2.50;;;;;;;;;;2612798;39;20868;-75
2023/10/28 06:35:05;;;;;;;6.50;2.50;;;;;;;;;;2612019;47;20539;-76
2023/10/28 06:37:32;;;;;;;4.90;2.40;;;;;;;;;;2612786;54;20922;-75
2023/10/28 06:39:58;;;;;;;6.20;2.40;;;;;;;;;;2612826;54;20454;-75
2023/10/28 06:42:24;;;;;;;5.30;1.87;;;;;;;;;;2612758;54;20399;-75
2023/10/28 06:44:51;;;;;;;9.27;2.40;;;;;;;;;;2614860;54;20423;-75
2023/10/28 06:47:25;;;;;;;4.77;1.60;;;;;;;;;;2615346;54;20494;-74
2023/10/28 06:49:51;;;;;;;5.80;1.87;;;;;;;;;;2615404;54;20551;-76
2023/10/28 06:52:17;;;;;;;5.43;2.10;;;;;;;;;;2613125;54;20424;-73
2023/10/28 06:54:44;;;;;;;7.80;2.17;;;;;;;;;;2612207;47;20562;-75
2023/10/28 06:57:10;;;;;;;5.13;2.00;;;;;;;;;;2612476;54;20424;-78
2023/10/28 06:59:36;;;;;;;8.30;2.33;;;;;;;;;;2611523;54;20399;-75
2023/10/28 07:02:02;;;;;;;4.23;2.10;;;;;;;;;;2610934;54;20420;-74
2023/10/28 07:04:28;;;;;;;4.10;1.73;;;;;;;;;;2611686;47;20937;-73
2023/10/28 07:06:55;;;;;;;7.30;1.80;;;;;;;;;;2612854;54;20424;-73
2023/10/28 07:09:21;;;;;;;5.37;2.17;;;;;;;;;;2613404;54;20409;-75
2023/10/28 07:11:47;;;;;;;3.93;2.37;;;;;;;;;;2612185;54;20431;-73
2023/10/28 07:14:13;;;;;;;3.80;1.87;;;;;;;;;;2612426;54;20408;-74
2023/10/28 07:16:41;;;;;;;3.50;2.00;;;;;;;;;;2613259;54;20398;-73
2023/10/28 07:19:09;;;;;;;3.20;1.40;;;;;;;;;;2612806;54;20430;-74
2023/10/28 07:21:36;;;;;;;5.30;2.90;;;;;;;;;;2612002;39;21258;-73
2023/10/28 07:24:02;;;;;;;3.03;1.60;;;;;;;;;;2612824;54;20404;-74
2023/10/28 07:26:29;;;;;;;3.33;1.50;;;;;;;;;;2613850;39;20802;-74
2023/10/28 07:28:56;;;;;;;2.70;1.37;;;;;;;;;;2613046;46;20415;-74
2023/10/28 07:31:22;;;;;;;3.13;1.53;;;;;;;;;;2612127;47;20419;-74
2023/10/28 07:33:49;;;;;;;2.90;1.70;;;;;;;;;;2630148;36;20471;-74
2023/10/28 07:36:15;;;;;;;2.57;1.70;;;;;;;;;;2612146;54;20948;-74
2023/10/28 07:38:41;;;;;;;3.00;1.80;;;;;;;;;;2612545;54;20396;-74
2023/10/28 07:41:07;;;;;;;3.37;1.23;;;;;;;;;;2612436;54;20451;-73
2023/10/28 07:43:33;;;;;;;4.13;1.67;;;;;;;;;;2612343;54;20411;-73
2023/10/28 07:45:59;;;;;;;3.70;1.50;;;;;;;;;;2612801;54;20403;-74
2023/10/28 07:48:26;;;;;;;3.63;1.43;;;;;;;;;;2611245;54;20404;-74
2023/10/28 07:50:52;;;;;;;1.87;1.20;;;;;;;;;;2609966;47;20425;-74
2023/10/28 07:53:18;;;;;;;2.90;1.50;;;;;;;;;;2610510;39;21058;-74
2023/10/28 07:55:44;;;;;;;2.30;1.33;;;;;;;;;;2612030;54;20415;-73
2023/10/28 07:58:10;;;;;;;3.87;1.33;;;;;;;;;;2612278;46;21004;-73
2023/10/28 08:00:39;;;;;;;2.83;1.30;;;;;;;;;;2612463;54;21005;-74
2023/10/28 08:03:06;;;;;;;3.93;1.43;;;;;;;;;;2614686;54;20957;-75
2023/10/28 08:05:38;;;;;;;2.13;1.20;;;;;;;;;;2616597;46;20404;-76
2023/10/28 08:08:05;;;;;;;6.67;1.40;;;;;;;;;;2616550;54;20424;-75
2023/10/28 08:10:39;;;;;;;4.00;1.20;;;;;;;;;;2615839;47;20555;-76
2023/10/28 08:13:06;;;;;;;6.93;1.60;;;;;;;;;;2616274;54;20415;-76
2023/10/28 08:15:32;;;;;;;2.43;1.43;;;;;;;;;;2616423;54;20439;-75
2023/10/28 08:17:58;;;;;;;4.63;1.17;;;;;;;;;;2616665;54;20563;-75
2023/10/28 08:20:26;;;;;;;2.10;1.90;;;;;;;;;;2615841;54;20427;-76
2023/10/28 08:23:00;;;;;;;2.03;1.43;;;;;;;;;;2616685;54;20988;-76
2023/10/28 08:25:26;;;;;;;5.70;1.60;;;;;;;;;;2616124;54;20488;-77
2023/10/28 08:27:53;;;;;;;1.70;1.10;;;;;;;;;;2615664;47;20511;-77
2023/10/28 08:30:20;;;;;;;2.10;1.13;;;;;;;;;;2615491;54;20426;-76
2023/10/28 08:32:47;;;;;;;9.23;1.80;;;;;;;;;;2616678;54;20427;-77
2023/10/28 08:35:37;;;;;;;2.73;1.40;;;;;;;;;;2616326;46;20446;-76
2023/10/28 08:38:07;;;;;;;2.27;1.40;;;;;;;;;;2614723;39;20806;-75
2023/10/28 08:40:34;;;;;;;6.03;1.97;;;;;;;;;;2614700;54;20646;-75
2023/10/28 08:43:00;;;;;;;3.57;1.43;;;;;;;;;;2614948;54;20419;-75
2023/10/28 08:45:29;;;;;;;3.03;1.60;;;;;;;;;;2615142;54;20411;-75
2023/10/28 08:47:58;;;;;;;2.50;1.23;;;;;;;;;;2616501;54;20403;-75
2023/10/28 08:50:26;;;;;;;1.77;1.17;;;;;;;;;;2615521;54;20415;-76
2023/10/28 08:53:03;;;;;;;2.77;1.00;;;;;;;;;;2615586;54;20410;-76
2023/10/28 08:55:30;;;;;;;3.33;1.50;;;;;;;;;;2614358;54;20403;-76
2023/10/28 08:57:57;;;;;;;3.40;1.20;;;;;;;;;;2613921;54;20423;-75
2023/10/28 09:00:25;;;;;;;3.63;1.63;;;;;;;;;;2614961;54;20442;-76
2023/10/28 09:02:51;;;;;;;2.00;1.27;;;;;;;;;;2614040;54;20428;-76
2023/10/28 09:05:19;;;;;;;2.80;1.60;;;;;;;;;;2614243;47;20450;-77
2023/10/28 09:07:46;;;;;;;2.90;1.20;;;;;;;;;;2614013;54;20531;-76
2023/10/28 09:10:17;;;;;;;9.23;1.57;;;;;;;;;;2614993;47;20411;-76
2023/10/28 09:12:44;;;;;;;5.10;1.83;;;;;;;;;;2611373;47;20411;-74
2023/10/28 09:21:17;;;;;;;3.10;1.33;;;;;;;;;;2610379;54;20366;-74
2023/10/28 09:23:43;;;;;;;3.50;1.27;;;;;;;;;;2609591;39;20491;-75
2023/10/28 09:26:10;;;;;;;3.90;1.73;;;;;;;;;;2610479;54;20414;-73
2023/10/28 09:28:43;;;;;;;3.63;1.30;;;;;;;;;;2610289;54;20400;-74
2023/10/28 09:31:09;;;;;;;5.33;1.43;;;;;;;;;;2609688;54;20407;-73
2023/10/28 09:33:36;;;;;;;2.30;1.40;;;;;;;;;;2609489;54;20424;-73
2023/10/28 09:36:04;;;;;;;1.97;1.30;;;;;;;;;;2608391;54;20423;-74
2023/10/28 09:38:30;;;;;;;2.27;1.13;;;;;;;;;;2609582;54;20403;-74
2023/10/28 09:40:58;;;;;;;2.50;1.17;;;;;;;;;;2610494;54;20471;-74
2023/10/28 09:43:24;;;;;;;2.33;1.40;;;;;;;;;;2612072;54;20424;-74
2023/10/28 09:45:51;;;;;;;1.87;1.00;;;;;;;;;;2612630;54;20427;-74
2023/10/28 09:48:18;;;;;;;2.63;1.20;;;;;;;;;;2612025;54;20519;-74
2023/10/28 09:50:52;;;;;;;2.93;1.30;;;;;;;;;;2612705;54;20406;-75
2023/10/28 09:53:23;;;;;;;3.33;1.23;;;;;;;;;;2611292;54;20426;-74
2023/10/28 09:55:55;;;;;;;3.60;1.57;;;;;;;;;;2611861;54;20426;-74
2023/10/28 09:58:25;;;;;;;5.33;1.70;;;;;;;;;;2612408;54;20426;-75
2023/10/28 10:00:55;;;;;;;4.13;3.10;;;;;;;;;;2610461;54;20404;-75
2023/10/28 10:03:33;;;;;;;6.40;2.00;;;;;;;;;;2611533;54;20503;-75
2023/10/28 10:05:59;;;;;;;10.10;2.00;;;;;;;;;;2611942;54;20535;-75
2023/10/28 10:08:26;;;;;;;2.93;1.20;;;;;;;;;;2612450;54;20400;-75
2023/10/28 10:10:57;;;;;;;2.77;1.50;;;;;;;;;;2610446;54;21746;-74
2023/10/28 10:13:24;;;;;;;2.50;1.50;;;;;;;;;;2610725;54;20437;-74
2023/10/28 10:16:03;;;;;;;3.03;1.57;;;;;;;;;;2610820;54;20392;-74
2023/10/28 10:18:33;;;;;;;4.63;1.43;;;;;;;;;;2610801;54;20382;-74
2023/10/28 10:21:06;;;;;;;4.40;1.10;;;;;;;;;;2612071;31;20885;-74
2023/10/28 10:23:45;;;;;;;2.20;1.70;;;;;;;;;;2610255;54;20400;-75
2023/10/28 10:26:29;;;;;;;2.30;1.33;;;;;;;;;;2611744;54;20430;-75
2023/10/28 10:28:55;;;;;;;3.20;1.60;;;;;;;;;;2611703;39;20921;-75
2023/10/28 10:31:30;;;;;;;2.67;1.30;;;;;;;;;;2610554;54;20404;-75
2023/10/28 10:33:59;;;;;;;2.73;1.83;;;;;;;;;;2610728;54;20558;-74
2023/10/28 10:36:28;;;;;;;2.70;1.20;;;;;;;;;;2611891;54;20475;-75
2023/10/28 10:38:55;;;;;;;2.57;1.33;;;;;;;;;;2610817;54;20406;-73
2023/10/28 10:41:27;;;;;;;5.10;1.70;;;;;;;;;;2608401;54;20451;-74
2023/10/28 10:43:54;;;;;;;2.90;1.70;;;;;;;;;;2612257;54;20530;-74
2023/10/28 10:46:20;;;;;;;5.30;1.97;;;;;;;;;;2613302;54;20396;-74
2023/10/28 10:48:47;;;;;;;4.37;1.60;;;;;;;;;;2613542;54;20404;-75
2023/10/28 10:51:15;;;;;;;1.90;1.27;;;;;;;;;;2613411;54;20424;-75
2023/10/28 10:53:45;;;;;;;2.93;1.57;;;;;;;;;;2613301;54;20415;-74
2023/10/28 10:56:21;;;;;;;3.20;1.53;;;;;;;;;;2612102;54;20415;-75
2023/10/28 10:58:47;;;;;;;4.67;1.70;;;;;;;;;;2613475;31;20824;-75
2023/10/28 11:01:15;;;;;;;5.83;1.97;;;;;;;;;;2612249;31;20896;-76
2023/10/28 11:03:41;;;;;;;4.77;2.07;;;;;;;;;;2614460;54;21210;-81
2023/10/28 11:06:08;;;;;;;3.77;2.10;;;;;;;;;;2614064;54;20409;-78
2023/10/28 11:08:34;;;;;;;3.03;2.03;;;;;;;;;;2613184;47;20647;-74
2023/10/28 11:11:03;;;;;;;2.60;2.27;;;;;;;;;;2613113;54;20463;-75
2023/10/28 11:13:29;;;;;;;2.43;2.03;;;;;;;;;;2613416;39;20802;-74
2023/10/28 11:15:55;;;;;;;8.40;2.63;;;;;;;;;;2611668;54;20411;-74
2023/10/28 11:18:21;;;;;;;3.50;2.50;;;;;;;;;;2610996;54;20408;-74
2023/10/28 11:20:49;;;;;;;3.83;2.73;;;;;;;;;;2612032;54;20404;-74
2023/10/28 11:23:19;;;;;;;2.40;2.00;;;;;;;;;;2613454;54;20458;-74
2023/10/28 11:25:49;;;;;;;3.40;2.10;;;;;;;;;;2613271;54;20426;-73
2023/10/28 11:28:15;;;;;;;2.43;2.00;;;;;;;;;;2612907;47;20433;-74
2023/10/28 11:30:48;;;;;;;2.77;2.13;;;;;;;;;;2613340;54;21307;-75
2023/10/28 11:33:15;;;;;;;5.47;2.47;;;;;;;;;;2613332;54;20978;-73
2023/10/28 11:35:41;;;;;;;3.53;2.47;;;;;;;;;;2612873;54;20416;-74
2023/10/28 11:38:08;;;;;;;4.27;2.90;;;;;;;;;;2613229;54;20407;-74
2023/10/28 11:40:34;;;;;;;2.90;2.70;;;;;;;;;;2612764;54;20452;-73
2023/10/28 11:43:04;;;;;;;4.50;3.00;;;;;;;;;;2613696;54;20388;-75
2023/10/28 11:45:30;;;;;;;3.90;2.83;;;;;;;;;;2613455;54;20388;-75
2023/10/28 11:47:56;;;;;;;5.30;2.70;;;;;;;;;;2613227;54;20399;-76
2023/10/28 11:50:22;;;;;;;3.57;2.30;;;;;;;;;;2612369;54;20418;-75
2023/10/28 11:52:49;;;;;;;4.30;2.67;;;;;;;;;;2612536;47;20424;-74
2023/10/28 11:55:15;;;;;;;3.20;2.70;;;;;;;;;;2611884;47;20435;-74
2023/10/28 11:57:41;;;;;;;5.30;3.10;;;;;;;;;;2614322;39;20780;-76
2023/10/28 12:00:09;;;;;;;4.00;3.60;;;;;;;;;;2612862;54;20433;-73
2023/10/28 12:02:36;;;;;;;4.10;3.67;;;;;;;;;;2612332;54;20415;-74
2023/10/28 12:05:03;;;;;;;6.50;3.13;;;;;;;;;;2613336;54;20424;-74
2023/10/28 12:07:29;;;;;;;8.57;3.67;;;;;;;;;;2613187;54;20392;-74
2023/10/28 12:09:55;;;;;;;5.00;3.60;;;;;;;;;;2613652;54;20973;-74
2023/10/28 12:12:21;;;;;;;6.07;3.97;;;;;;;;;;2612594;54;20893;-75
2023/10/28 12:14:47;;;;;;;4.00;3.70;;;;;;;;;;2612998;54;20412;-74
2023/10/28 12:17:13;;;;;;;4.03;3.63;;;;;;;;;;2612706;54;20417;-74
2023/10/28 12:19:42;;;;;;;5.70;4.80;;;;;;;;;;2612987;54;21032;-73
2023/10/28 12:22:08;;;;;;;6.80;5.27;;;;;;;;;;2612833;54;20539;-73
2023/10/28 12:24:34;;;;;;;8.80;4.67;;;;;;;;;;2613185;46;20439;-75
2023/10/28 12:27:00;;;;;;;8.80;4.70;;;;;;;;;;2612506;54;20418;-74
2023/10/28 12:29:27;;;;;;;7.10;3.60;;;;;;;;;;2612961;54;20973;-74
2023/10/28 12:31:53;;;;;;;6.07;2.90;;;;;;;;;;2613121;54;20459;-73
2023/10/28 12:34:19;;;;;;;7.80;4.17;;;;;;;;;;2613437;54;20457;-74
2023/10/28 12:36:47;;;;;;;9.60;4.63;;;;;;;;;;2613537;54;20427;-74
2023/10/28 12:39:16;;;;;;;4.07;3.37;;;;;;;;;;2613106;54;20428;-74
2023/10/28 12:41:42;;;;;;;4.13;3.40;;;;;;;;;;2614009;39;21223;-73
2023/10/28 12:44:08;;;;;;;9.50;3.93;;;;;;;;;;2613025;47;20574;-74
2023/10/28 12:46:35;;;;;;;9.23;4.27;;;;;;;;;;2613553;54;20395;-74
2023/10/28 12:49:01;;;;;;;4.97;3.80;;;;;;;;;;2613543;54;20961;-74
2023/10/28 12:51:28;;;;;;;6.93;3.60;;;;;;;;;;2612924;54;20914;-75
2023/10/28 12:53:57;;;;;;;6.90;3.30;;;;;;;;;;2612921;54;20427;-75
2023/10/28 12:56:24;;;;;;;5.03;2.80;;;;;;;;;;2612817;51;20427;-75
2023/10/28 12:58:50;;;;;;;10.33;4.03;;;;;;;;;;2613660;54;20426;-74
2023/10/28 13:01:16;;;;;;;4.93;3.20;;;;;;;;;;2612870;54;20424;-74
2023/10/28 13:03:43;;;;;;;4.33;3.20;;;;;;;;;;2614216;54;20415;-76
2023/10/28 13:06:10;;;;;;;7.17;4.10;;;;;;;;;;2615479;47;20965;-76
2023/10/28 13:08:36;;;;;;;7.07;3.80;;;;;;;;;;2616317;54;20407;-77
2023/10/28 13:11:02;;;;;;;5.63;4.00;;;;;;;;;;2616171;54;21302;-76
2023/10/28 13:13:28;;;;;;;5.50;4.70;;;;;;;;;;2615796;47;20995;-75
2023/10/28 13:16:00;;;;;;;9.17;4.07;;;;;;;;;;2616100;54;20408;-75
2023/10/28 13:18:29;;;;;;;7.10;4.37;;;;;;;;;;2615641;31;20888;-76
2023/10/28 13:21:02;;;;;;;8.53;4.13;;;;;;;;;;2615591;54;20423;-75
2023/10/28 13:23:28;;;;;;;8.33;2.70;;;;;;;;;;2616741;54;20388;-76
2023/10/28 13:25:56;;;;;;;5.40;2.20;;;;;;;;;;2616069;47;20510;-75
2023/10/28 13:28:49;;;;;;;11.93;2.60;;;;;;;;;;2615788;47;20446;-76
2023/10/28 13:31:17;;;;;;;9.70;2.50;;;;;;;;;;2615826;52;20496;-75
2023/10/28 13:33:43;;;;;;;6.80;2.70;;;;;;;;;;2616248;54;20447;-76
2023/10/28 13:36:11;;;;;;;5.10;2.27;;;;;;;;;;2616491;47;20427;-77
2023/10/28 13:38:38;;;;;;;5.40;2.23;;;;;;;;;;2616109;47;20415;-76
2023/10/28 13:41:04;;;;;;;6.33;2.53;;;;;;;;;;2616133;54;20479;-75
2023/10/28 13:43:31;;;;;;;7.57;3.00;;;;;;;;;;2617169;39;20828;-75
2023/10/28 13:46:03;;;;;;;5.90;2.63;;;;;;;;;;2616472;47;20442;-74
2023/10/28 13:48:30;;;;;;;5.70;2.80;;;;;;;;;;2616773;54;20504;-75
2023/10/28 13:51:01;;;;;;;5.07;1.77;;;;;;;;;;2616435;54;20400;-75
2023/10/28 13:53:27;;;;;;;9.90;2.10;;;;;;;;;;2616035;47;20454;-75
2023/10/28 13:56:00;;;;;;;5.80;2.53;;;;;;;;;;2615750;47;20434;-75
2023/10/28 13:58:31;;;;;;;3.30;1.47;;;;;;;;;;2616426;54;20453;-76
2023/10/28 14:01:08;;;;;;;3.93;2.20;;;;;;;;;;2615228;47;20419;-75
2023/10/28 14:03:35;;;;;;;6.37;2.40;;;;;;;;;;2613949;54;20423;-74
2023/10/28 14:06:04;;;;;;;3.77;1.87;;;;;;;;;;2612759;54;20400;-74
2023/10/28 14:08:30;;;;;;;3.20;2.03;;;;;;;;;;2612848;54;20438;-74
2023/10/28 14:10:56;;;;;;;5.30;2.03;;;;;;;;;;2612712;54;20408;-76
2023/10/28 14:13:22;;;;;;;5.77;2.07;;;;;;;;;;2613292;54;20526;-74
2023/10/28 14:15:48;;;;;;;3.83;1.40;;;;;;;;;;2613435;54;20851;-75
2023/10/28 14:18:17;;;;;;;4.23;2.60;;;;;;;;;;2613390;39;20794;-74
2023/10/28 14:20:43;;;;;;;7.70;2.27;;;;;;;;;;2612789;54;21340;-74
2023/10/28 14:23:09;;;;;;;13.83;2.40;;;;;;;;;;2611723;54;20438;-76
2023/10/28 14:25:35;;;;;;;5.30;2.10;;;;;;;;;;2613017;54;20940;-76
2023/10/28 14:28:01;;;;;;;5.03;2.13;;;;;;;;;;2611923;54;21068;-77
2023/10/28 14:30:27;;;;;;;4.10;2.20;;;;;;;;;;2612678;54;20415;-76
2023/10/28 14:32:57;;;;;;;5.43;2.10;;;;;;;;;;2611872;47;20469;-76
2023/10/28 14:35:25;;;;;;;2.30;1.60;;;;;;;;;;2613218;54;20438;-76
2023/10/28 14:37:51;;;;;;;8.80;2.33;;;;;;;;;;2613705;54;20428;-76
2023/10/28 14:40:17;;;;;;;6.77;1.87;;;;;;;;;;2613941;54;20945;-76
2023/10/28 14:42:43;;;;;;;7.03;2.00;;;;;;;;;;2613192;47;20457;-75
2023/10/28 14:45:11;;;;;;;8.50;2.67;;;;;;;;;;2613788;54;20415;-76
2023/10/28 14:47:39;;;;;;;7.80;2.50;;;;;;;;;;2610334;47;20426;-78